Aviation Digital Data Service (ADDS)

Output produced by METARs form (1832 UTC 23 February 2017)
found at http://www.aviationweather.gov/adds/metars/
 
KALB 231730Z 2318/2418 18013KT P6SM SCT070 
     FM240600 VRB03KT P6SM BKN025 
     FM241000 VRB03KT 2SM BR VCSH SCT015 OVC025 
     FM241500 18006KT P6SM SCT025 BKN050